Time,TemperatureF,DewpointF,PressureIn,WindDirection,WindDirectionDegrees,WindSpeedMPH,WindSpeedGustMPH,Humidity,HourlyPrecipIn,Conditions,Clouds,dailyrainin,SoftwareType,DateUTC
2013-03-28 00:02:00,44.8,39.0,30.01,East,83,0.0,2.0,80,0.00,,,0.00,weatherlink.com 1.10,2013-03-28 07:02:00,
2013-03-28 00:17:00,44.4,39.0,30.01,East,80,2.0,3.0,80,0.00,,,0.00,weatherlink.com 1.10,2013-03-28 07:17:00,
2013-03-28 00:33:00,43.6,38.0,30.01,East,80,0.0,4.0,82,0.00,,,0.00,weatherlink.com 1.10,2013-03-28 07:33:00,
2013-03-28 00:48:00,42.9,38.0,30.01,East,89,2.0,4.0,83,0.00,,,0.00,weatherlink.com 1.10,2013-03-28 07:48:00,
2013-03-28 01:03:00,42.1,38.0,30.01,ENE,69,3.0,5.0,84,0.00,,,0.00,weatherlink.com 1.10,2013-03-28 08:03:00,
2013-03-28 01:18:00,41.7,38.0,30.02,East,84,1.0,5.0,85,0.00,,,0.00,weatherlink.com 1.10,2013-03-28 08:18:00,
2013-03-28 01:33:00,41.6,37.0,30.01,East,89,0.0,5.0,85,0.00,,,0.00,weatherlink.com 1.10,2013-03-28 08:33:00,
2013-03-28 01:50:00,42.1,38.0,30.01,NE,49,4.0,6.0,84,0.00,,,0.00,weatherlink.com 1.10,2013-03-28 08:50:00,
2013-03-28 02:18:00,43.3,38.0,30.01,ENE,74,3.0,6.0,80,0.00,,,0.00,weatherlink.com 1.10,2013-03-28 09:18:00,
2013-03-28 02:33:00,41.8,37.0,30.01,East,95,2.0,4.0,84,0.00,,,0.00,weatherlink.com 1.10,2013-03-28 09:33:00,
2013-03-28 02:48:00,40.8,37.0,30.01,ENE,58,4.0,5.0,86,0.00,,,0.00,weatherlink.com 1.10,2013-03-28 09:48:00,
2013-03-28 03:03:00,40.7,37.0,30.01,ENE,64,3.0,5.0,86,0.00,,,0.00,weatherlink.com 1.10,2013-03-28 10:03:00,
2013-03-28 03:18:00,40.4,37.0,30.01,ENE,66,2.0,4.0,86,0.00,,,0.00,weatherlink.com 1.10,2013-03-28 10:18:00,
2013-03-28 03:33:00,40.1,37.0,30.01,NE,39,4.0,5.0,87,0.00,,,0.00,weatherlink.com 1.10,2013-03-28 10:33:00,
2013-03-28 03:48:00,39.6,36.0,30.02,ENE,72,2.0,5.0,87,0.00,,,0.00,weatherlink.com 1.10,2013-03-28 10:48:00,
2013-03-28 04:03:00,38.1,35.0,30.02,NE,54,3.0,5.0,89,0.00,,,0.00,weatherlink.com 1.10,2013-03-28 11:03:00,
2013-03-28 04:18:00,38.7,36.0,30.02,ENE,63,2.0,3.0,89,0.00,,,0.00,weatherlink.com 1.10,2013-03-28 11:18:00,
2013-03-28 04:33:00,39.6,36.0,30.02,ENE,77,4.0,6.0,88,0.00,,,0.00,weatherlink.com 1.10,2013-03-28 11:33:00,
2013-03-28 04:48:00,39.2,36.0,30.02,ENE,64,5.0,6.0,87,0.00,,,0.00,weatherlink.com 1.10,2013-03-28 11:48:00,
2013-03-28 05:03:00,38.5,36.0,30.02,East,86,2.0,4.0,89,0.00,,,0.00,weatherlink.com 1.10,2013-03-28 12:03:00,
2013-03-28 05:18:00,38.2,36.0,30.03,East,79,3.0,5.0,90,0.00,,,0.00,weatherlink.com 1.10,2013-03-28 12:18:00,
2013-03-28 05:33:00,38.3,36.0,30.03,ENE,74,3.0,6.0,90,0.00,,,0.00,weatherlink.com 1.10,2013-03-28 12:33:00,
2013-03-28 05:48:00,38.2,36.0,30.03,NE,49,2.0,5.0,91,0.00,,,0.00,weatherlink.com 1.10,2013-03-28 12:48:00,
2013-03-28 06:03:00,38.9,36.0,30.03,ENE,67,3.0,5.0,90,0.00,,,0.00,weatherlink.com 1.10,2013-03-28 13:03:00,
2013-03-28 06:18:00,39.5,36.0,30.03,East,94,3.0,6.0,88,0.00,,,0.00,weatherlink.com 1.10,2013-03-28 13:18:00,
2013-03-28 06:33:00,39.9,37.0,30.03,ENE,58,3.0,7.0,88,0.00,,,0.00,weatherlink.com 1.10,2013-03-28 13:33:00,
2013-03-28 06:48:00,39.7,37.0,30.05,SE,135,2.0,4.0,88,0.00,,,0.00,weatherlink.com 1.10,2013-03-28 13:48:00,
2013-03-28 07:03:00,38.8,36.0,30.06,ENE,70,0.0,3.0,90,0.00,,,0.00,weatherlink.com 1.10,2013-03-28 14:03:00,
2013-03-28 07:18:00,38.6,36.0,30.05,NE,52,1.0,3.0,91,0.01,,,0.01,weatherlink.com 1.10,2013-03-28 14:18:00,
2013-03-28 07:33:00,39.3,37.0,30.05,ESE,105,2.0,4.0,92,0.01,,,0.01,weatherlink.com 1.10,2013-03-28 14:33:00,
2013-03-28 07:48:00,39.6,38.0,30.05,ENE,71,1.0,4.0,92,0.01,,,0.01,weatherlink.com 1.10,2013-03-28 14:48:00,
2013-03-28 08:04:00,40.1,38.0,30.05,SE,131,0.0,7.0,93,0.01,,,0.01,weatherlink.com 1.10,2013-03-28 15:04:00,
2013-03-28 08:19:00,40.8,39.0,30.05,ESE,102,2.0,5.0,92,0.00,,,0.01,weatherlink.com 1.10,2013-03-28 15:19:00,
2013-03-28 08:49:00,40.9,39.0,30.06,East,94,1.0,5.0,92,0.00,,,0.01,weatherlink.com 1.10,2013-03-28 15:49:00,
2013-03-28 09:04:00,42.0,40.0,30.06,East,83,2.0,4.0,91,0.00,,,0.01,weatherlink.com 1.10,2013-03-28 16:04:00,
2013-03-28 09:19:00,42.2,40.0,30.07,East,99,1.0,4.0,90,0.00,,,0.01,weatherlink.com 1.10,2013-03-28 16:19:00,
2013-03-28 09:34:00,42.7,39.0,30.07,ENE,66,4.0,7.0,88,0.00,,,0.01,weatherlink.com 1.10,2013-03-28 16:34:00,
2013-03-28 09:49:00,43.8,41.0,30.07,ENE,73,2.0,5.0,88,0.00,,,0.01,weatherlink.com 1.10,2013-03-28 16:49:00,
2013-03-28 10:04:00,44.4,41.0,30.07,East,79,2.0,7.0,87,0.00,,,0.01,weatherlink.com 1.10,2013-03-28 17:04:00,
2013-03-28 10:19:00,44.9,41.0,30.07,East,84,4.0,7.0,86,0.00,,,0.01,weatherlink.com 1.10,2013-03-28 17:19:00,
2013-03-28 10:34:00,45.7,42.0,30.07,NE,41,9.0,10.0,85,0.00,,,0.01,weatherlink.com 1.10,2013-03-28 17:34:00,
2013-03-28 10:49:00,46.3,42.0,30.07,ENE,70,4.0,8.0,84,0.00,,,0.01,weatherlink.com 1.10,2013-03-28 17:49:00,
2013-03-28 11:04:00,46.4,42.0,30.07,NE,50,5.0,6.0,83,0.00,,,0.01,weatherlink.com 1.10,2013-03-28 18:04:00,
2013-03-28 11:19:00,47.2,42.0,30.07,NE,44,3.0,6.0,83,0.00,,,0.01,weatherlink.com 1.10,2013-03-28 18:19:00,
2013-03-28 11:34:00,48.8,42.0,30.07,SE,133,1.0,4.0,78,0.00,,,0.01,weatherlink.com 1.10,2013-03-28 18:34:00,
2013-03-28 11:49:00,50.1,42.0,30.07,SE,136,1.0,5.0,75,0.00,,,0.01,weatherlink.com 1.10,2013-03-28 18:49:00,
2013-03-28 12:04:00,51.3,43.0,30.07,ESE,115,0.0,3.0,72,0.00,,,0.01,weatherlink.com 1.10,2013-03-28 19:04:00,
2013-03-28 12:19:00,51.9,42.0,30.07,WNW,302,2.0,4.0,69,0.00,,,0.01,weatherlink.com 1.10,2013-03-28 19:19:00,
2013-03-28 12:34:00,51.3,42.0,30.06,WSW,248,1.0,4.0,70,0.00,,,0.01,weatherlink.com 1.10,2013-03-28 19:34:00,
2013-03-28 12:49:00,51.8,42.0,30.06,WSW,253,0.0,3.0,69,0.00,,,0.01,weatherlink.com 1.10,2013-03-28 19:49:00,
2013-03-28 13:04:00,52.7,43.0,30.06,North,354,2.0,6.0,70,0.00,,,0.01,weatherlink.com 1.10,2013-03-28 20:04:00,
2013-03-28 13:19:00,53.2,44.0,30.06,NNE,30,0.0,2.0,71,0.00,,,0.01,weatherlink.com 1.10,2013-03-28 20:19:00,
2013-03-28 13:34:00,53.0,44.0,30.05,SSE,163,2.0,7.0,71,0.00,,,0.01,weatherlink.com 1.10,2013-03-28 20:34:00,
2013-03-28 13:49:00,53.7,45.0,30.05,WSW,242,2.0,4.0,72,0.00,,,0.01,weatherlink.com 1.10,2013-03-28 20:49:00,
2013-03-28 14:04:00,53.6,44.0,30.05,WSW,257,3.0,4.0,71,0.00,,,0.01,weatherlink.com 1.10,2013-03-28 21:04:00,
2013-03-28 14:19:00,53.5,43.0,30.04,NW,307,4.0,7.0,68,0.00,,,0.01,weatherlink.com 1.10,2013-03-28 21:19:00,
2013-03-28 14:34:00,53.8,43.0,30.04,WNW,294,3.0,5.0,66,0.00,,,0.01,weatherlink.com 1.10,2013-03-28 21:34:00,
2013-03-28 15:04:00,54.2,41.0,30.03,WNW,295,2.0,5.0,62,0.00,,,0.01,weatherlink.com 1.10,2013-03-28 22:04:00,
2013-03-28 15:19:00,55.1,42.0,30.03,SW,230,4.0,5.0,62,0.00,,,0.01,weatherlink.com 1.10,2013-03-28 22:19:00,
2013-03-28 15:35:00,54.7,43.0,30.03,WSW,243,3.0,5.0,65,0.00,,,0.01,weatherlink.com 1.10,2013-03-28 22:35:00,
2013-03-28 15:50:00,55.8,42.0,30.03,SW,228,3.0,7.0,60,0.00,,,0.01,weatherlink.com 1.10,2013-03-28 22:50:00,
2013-03-28 16:05:00,54.8,42.0,30.03,SW,225,4.0,9.0,62,0.00,,,0.01,weatherlink.com 1.10,2013-03-28 23:05:00,
2013-03-28 16:20:00,55.0,42.0,30.03,WSW,242,4.0,6.0,62,0.00,,,0.01,weatherlink.com 1.10,2013-03-28 23:20:00,
2013-03-28 16:35:00,54.9,42.0,30.04,SW,228,5.0,6.0,62,0.00,,,0.01,weatherlink.com 1.10,2013-03-28 23:35:00,
2013-03-28 16:50:00,54.5,42.0,30.04,SW,235,5.0,8.0,63,0.00,,,0.01,weatherlink.com 1.10,2013-03-28 23:50:00,
2013-03-28 17:05:00,54.5,42.0,30.04,WSW,245,4.0,8.0,63,0.00,,,0.01,weatherlink.com 1.10,2013-03-29 00:05:00,
2013-03-28 17:20:00,53.9,42.0,30.04,WSW,243,4.0,6.0,65,0.00,,,0.01,weatherlink.com 1.10,2013-03-29 00:20:00,
2013-03-28 17:35:00,53.6,42.0,30.04,West,259,2.0,5.0,65,0.00,,,0.01,weatherlink.com 1.10,2013-03-29 00:35:00,
2013-03-28 17:50:00,53.5,42.0,30.04,WSW,258,1.0,4.0,66,0.00,,,0.01,weatherlink.com 1.10,2013-03-29 00:50:00,
2013-03-28 18:05:00,53.8,43.0,30.04,WSW,242,1.0,3.0,68,0.00,,,0.01,weatherlink.com 1.10,2013-03-29 01:05:00,
2013-03-28 18:20:00,54.2,43.0,30.04,SSW,207,0.0,2.0,66,0.00,,,0.01,weatherlink.com 1.10,2013-03-29 01:20:00,
2013-03-28 18:35:00,53.5,43.0,30.04,South,188,0.0,1.0,67,0.00,,,0.01,weatherlink.com 1.10,2013-03-29 01:35:00,
2013-03-28 18:50:00,51.5,43.0,30.04,South,188,0.0,0.0,73,0.00,,,0.01,weatherlink.com 1.10,2013-03-29 01:50:00,
2013-03-28 19:05:00,48.1,42.0,30.05,SW,219,0.0,1.0,78,0.00,,,0.01,weatherlink.com 1.10,2013-03-29 02:05:00,
2013-03-28 19:20:00,46.9,41.0,30.05,SW,219,1.0,1.0,81,0.00,,,0.01,weatherlink.com 1.10,2013-03-29 02:20:00,
2013-03-28 19:35:00,45.9,40.0,30.05,ESE,112,0.0,1.0,81,0.00,,,0.01,weatherlink.com 1.10,2013-03-29 02:35:00,
2013-03-28 19:50:00,44.4,41.0,30.06,NE,39,0.0,1.0,86,0.00,,,0.01,weatherlink.com 1.10,2013-03-29 02:50:00,
2013-03-28 20:05:00,43.2,40.0,30.06,NE,39,0.0,0.0,87,0.00,,,0.01,weatherlink.com 1.10,2013-03-29 03:05:00,
2013-03-28 20:20:00,43.0,40.0,30.07,NE,39,0.0,0.0,90,0.00,,,0.01,weatherlink.com 1.10,2013-03-29 03:20:00,
2013-03-28 20:35:00,43.3,41.0,30.07,ESE,115,0.0,1.0,90,0.00,,,0.01,weatherlink.com 1.10,2013-03-29 03:35:00,
2013-03-28 20:50:00,43.7,41.0,30.08,WNW,283,0.0,1.0,91,0.00,,,0.01,weatherlink.com 1.10,2013-03-29 03:50:00,
2013-03-28 21:05:00,44.7,42.0,30.08,SE,137,0.0,1.0,91,0.01,,,0.02,weatherlink.com 1.10,2013-03-29 04:05:00,
2013-03-28 21:20:00,44.4,42.0,30.08,NE,47,0.0,2.0,91,0.01,,,0.02,weatherlink.com 1.10,2013-03-29 04:20:00,
2013-03-28 21:35:00,44.2,42.0,30.08,NE,44,0.0,1.0,92,0.01,,,0.02,weatherlink.com 1.10,2013-03-29 04:35:00,
2013-03-28 21:50:00,43.9,42.0,30.09,NE,44,0.0,0.0,93,0.01,,,0.02,weatherlink.com 1.10,2013-03-29 04:50:00,
2013-03-28 22:05:00,42.8,41.0,30.09,ESE,123,0.0,1.0,92,0.00,,,0.02,weatherlink.com 1.10,2013-03-29 05:05:00,
2013-03-28 22:20:00,42.0,40.0,30.09,ESE,123,0.0,0.0,93,0.00,,,0.02,weatherlink.com 1.10,2013-03-29 05:20:00,
2013-03-28 22:35:00,41.7,40.0,30.09,ESE,123,0.0,0.0,95,0.00,,,0.02,weatherlink.com 1.10,2013-03-29 05:35:00,
2013-03-28 22:50:00,41.2,40.0,30.09,ESE,123,0.0,1.0,95,0.00,,,0.02,weatherlink.com 1.10,2013-03-29 05:50:00,
2013-03-28 23:05:00,40.9,40.0,30.10,NNE,26,0.0,2.0,96,0.00,,,0.02,weatherlink.com 1.10,2013-03-29 06:05:00,
2013-03-28 23:20:00,42.7,41.0,30.10,East,94,0.0,1.0,95,0.00,,,0.02,weatherlink.com 1.10,2013-03-29 06:20:00,
2013-03-28 23:35:00,42.5,41.0,30.10,ESE,107,0.0,1.0,93,0.00,,,0.02,weatherlink.com 1.10,2013-03-29 06:35:00,
2013-03-28 23:50:00,41.4,40.0,30.10,SW,225,0.0,1.0,94,0.00,,,0.02,weatherlink.com 1.10,2013-03-29 06:50:00,